createdAt,value
2019-04-01T00:00:40.970Z,97296.07
2019-04-01T00:03:12.169Z,97290.88
2019-04-01T00:05:43.392Z,97292.98
2019-04-01T00:08:14.515Z,97298.76
2019-04-01T00:10:45.800Z,97294.02
2019-04-01T00:13:18.703Z,97301.70
2019-04-01T00:15:50.119Z,97301.25
2019-04-01T00:18:21.268Z,97302.09
2019-04-01T00:20:52.810Z,97306.39
2019-04-01T00:23:24.041Z,97303.31
2019-04-01T00:25:55.415Z,97306.59
2019-04-01T00:28:26.779Z,97303.84
2019-04-01T00:30:57.933Z,97297.33
2019-04-01T00:33:29.107Z,97294.75
2019-04-01T00:36:01.303Z,97295.64
2019-04-01T00:38:32.432Z,97290.82
2019-04-01T00:41:04.256Z,97298.06
2019-04-01T00:44:00.656Z,97288.48
2019-04-01T00:46:33.100Z,97295.27
2019-04-01T00:49:04.442Z,97291.03
2019-04-01T00:51:36.212Z,97290.96
2019-04-01T00:54:07.454Z,97287.50
2019-04-01T00:56:38.569Z,97286.68
2019-04-01T00:59:09.789Z,97287.16
2019-04-01T01:01:41.083Z,97285.25
2019-04-01T01:04:12.317Z,97282.27
2019-04-01T01:06:43.473Z,97283.14
2019-04-01T01:09:14.625Z,97278.88
2019-04-01T01:11:46.111Z,97278.73
2019-04-01T01:14:17.247Z,97283.46
2019-04-01T01:16:48.727Z,97284.62
2019-04-01T01:19:20.444Z,97279.89
2019-04-01T01:21:51.654Z,97286.56
2019-04-01T01:24:22.872Z,97273.39
2019-04-01T01:26:54.482Z,97281.98
2019-04-01T01:29:25.880Z,97274.99
2019-04-01T01:31:57.322Z,97273.52
2019-04-01T01:34:28.491Z,97268.67
2019-04-01T01:36:59.751Z,97281.09
2019-04-01T01:39:30.898Z,97275.81
2019-04-01T01:42:02.040Z,97275.30
2019-04-01T01:44:33.471Z,97271.81
2019-04-01T01:47:04.672Z,97271.23
2019-04-01T01:49:36.143Z,97273.80
2019-04-01T01:52:07.711Z,97271.56
2019-04-01T01:54:38.836Z,97268.17
2019-04-01T01:57:10.284Z,97267.77
2019-04-01T01:59:41.535Z,97266.17
2019-04-01T02:02:12.744Z,97270.72
2019-04-01T02:04:44.330Z,97272.11
2019-04-01T02:07:16.104Z,97269.44
2019-04-01T02:09:47.241Z,97268.54
2019-04-01T02:12:18.380Z,97273.13
2019-04-01T02:14:49.579Z,97268.88
2019-04-01T02:17:21.162Z,97273.67
2019-04-01T02:19:52.950Z,97269.77
2019-04-01T02:22:24.081Z,97273.02
2019-04-01T02:24:55.337Z,97274.43
2019-04-01T02:27:26.499Z,97269.81
2019-04-01T02:29:57.645Z,97269.05
2019-04-01T02:32:28.891Z,97275.92
2019-04-01T02:35:00.453Z,97272.42
2019-04-01T02:37:31.808Z,97274.09
2019-04-01T02:40:03.357Z,97272.81
2019-04-01T02:42:34.979Z,97269.30
2019-04-01T02:45:07.293Z,97261.14
2019-04-01T02:47:38.431Z,97269.98
2019-04-01T02:50:10.190Z,97268.05
2019-04-01T02:52:41.635Z,97264.70
2019-04-01T02:55:12.998Z,97269.33
2019-04-01T02:57:45.261Z,97266.36
2019-04-01T03:00:16.930Z,97269.00
2019-04-01T03:02:48.284Z,97268.16
2019-04-01T03:05:19.917Z,97269.28
2019-04-01T03:07:51.344Z,97269.19
2019-04-01T03:10:22.572Z,97271.33
2019-04-01T03:12:53.862Z,97275.58
2019-04-01T03:15:25.091Z,97270.05
2019-04-01T03:17:56.635Z,97274.20
2019-04-01T03:20:27.999Z,97267.66
2019-04-01T03:22:59.470Z,97267.17
2019-04-01T03:25:30.937Z,97262.92
2019-04-01T03:28:02.064Z,97264.23
2019-04-01T03:30:33.362Z,97271.22
2019-04-01T03:33:05.579Z,97272.48
2019-04-01T03:35:36.854Z,97266.83
2019-04-01T03:38:07.989Z,97269.83
2019-04-01T03:40:39.283Z,97264.67
2019-04-01T03:43:10.691Z,97272.34
2019-04-01T03:45:41.905Z,97268.78
2019-04-01T03:48:13.052Z,97267.80
2019-04-01T03:50:44.470Z,97267.50
2019-04-01T03:53:15.654Z,97266.92
2019-04-01T03:55:46.795Z,97257.92
2019-04-01T03:58:18.081Z,97257.52
2019-04-01T04:00:49.324Z,97257.45
2019-04-01T04:03:20.428Z,97248.41
2019-04-01T04:05:52.285Z,97257.75
2019-04-01T04:08:23.425Z,97260.22
2019-04-01T04:10:55.212Z,97251.84
2019-04-01T04:13:27.373Z,97253.70
2019-04-01T04:15:58.595Z,97257.11
2019-04-01T04:18:31.446Z,97252.80
2019-04-01T04:21:02.704Z,97262.49
2019-04-01T04:23:33.910Z,97258.06
2019-04-01T04:26:05.569Z,97257.07
2019-04-01T04:28:36.716Z,97266.91
2019-04-01T04:31:07.976Z,97266.22
2019-04-01T04:33:39.280Z,97267.09
2019-04-01T04:36:10.649Z,97269.66
2019-04-01T04:38:42.455Z,97268.38
2019-04-01T04:41:13.875Z,97264.09
2019-04-01T04:43:45.153Z,97271.66
2019-04-01T04:46:20.700Z,97268.16
2019-04-01T04:48:49.653Z,97271.16
2019-04-01T04:51:21.429Z,97269.03
2019-04-01T04:53:53.456Z,97268.13
2019-04-01T04:56:24.806Z,97274.56
2019-04-01T04:58:56.229Z,97272.27
2019-04-01T05:01:27.600Z,97262.92
2019-04-01T05:03:58.889Z,97279.06
2019-04-01T05:06:30.182Z,97269.61
2019-04-01T05:09:01.411Z,97277.94
2019-04-01T05:11:34.042Z,97277.44
2019-04-01T05:14:05.443Z,97279.84
2019-04-01T05:16:36.572Z,97281.66
2019-04-01T05:19:07.945Z,97283.97
2019-04-01T05:21:39.737Z,97281.78
2019-04-01T05:24:11.491Z,97283.36
2019-04-01T05:26:45.270Z,97285.64
2019-04-01T05:29:18.052Z,97287.39
2019-04-01T05:31:50.331Z,97287.80
2019-04-01T05:34:22.667Z,97275.51
2019-04-01T05:36:53.966Z,97282.59
2019-04-01T05:39:25.575Z,97287.85
2019-04-01T05:41:56.816Z,97285.00
2019-04-01T05:44:28.619Z,97291.55
2019-04-01T05:47:00.156Z,97289.32
2019-04-01T05:49:33.075Z,97288.23
2019-04-01T05:52:04.451Z,97291.91
2019-04-01T05:54:35.814Z,97289.20
2019-04-01T05:57:07.457Z,97291.47
2019-04-01T05:59:38.835Z,97298.55
2019-04-01T06:02:10.607Z,97294.63
2019-04-01T06:04:41.987Z,97303.03
2019-04-01T06:07:13.337Z,97298.09
2019-04-01T06:09:44.729Z,97297.52
2019-04-01T06:12:16.357Z,97300.86
2019-04-01T06:14:48.447Z,97300.25
2019-04-01T06:17:19.793Z,97306.20
2019-04-01T06:19:51.707Z,97306.70
2019-04-01T06:22:24.028Z,97299.80
2019-04-01T06:24:56.961Z,97296.97
2019-04-01T06:27:28.780Z,97294.91
2019-04-01T06:30:00.563Z,97295.13
2019-04-01T06:32:32.036Z,97290.80
2019-04-01T06:35:05.962Z,97292.02
2019-04-01T06:37:37.321Z,97288.73
2019-04-01T06:40:09.001Z,97290.73
2019-04-01T06:42:40.875Z,97293.20
2019-04-01T06:45:12.327Z,97295.48
2019-04-01T06:47:44.080Z,97289.72
2019-04-01T06:50:15.795Z,97288.55
2019-04-01T06:52:47.306Z,97291.48
2019-04-01T06:55:18.729Z,97288.61
2019-04-01T06:57:50.190Z,97290.39
2019-04-01T07:00:21.916Z,97293.52
2019-04-01T07:02:54.675Z,97298.05
2019-04-01T07:05:26.404Z,97288.77
2019-04-01T07:07:58.145Z,97286.30
2019-04-01T07:10:29.975Z,97288.10
2019-04-01T07:13:01.361Z,97284.20
2019-04-01T07:15:32.805Z,97281.02
2019-04-01T07:18:04.459Z,97285.01
2019-04-01T07:20:35.918Z,97284.22
2019-04-01T07:23:07.651Z,97279.08
2019-04-01T07:25:39.097Z,97285.55
2019-04-01T07:28:10.917Z,97285.95
2019-04-01T07:30:42.437Z,97279.54
2019-04-01T07:33:14.071Z,97279.95
2019-04-01T07:35:46.818Z,97279.92
2019-04-01T07:38:19.819Z,97278.95
2019-04-01T07:40:51.516Z,97280.59
2019-04-01T07:43:23.423Z,97291.95
2019-04-01T07:45:54.861Z,97285.41
2019-04-01T07:48:26.470Z,97291.77
2019-04-01T07:50:58.342Z,97292.25
2019-04-01T07:53:29.773Z,97292.02
2019-04-01T07:56:02.769Z,97293.32
2019-04-01T07:58:35.225Z,97292.48
2019-04-01T08:01:06.703Z,97297.22
2019-04-01T08:03:41.798Z,97291.62
2019-04-01T08:06:13.152Z,97295.23
2019-04-01T08:08:46.342Z,97296.28
2019-04-01T08:11:17.805Z,97283.88
2019-04-01T08:13:49.683Z,97288.56
2019-04-01T08:16:21.148Z,97293.55
2019-04-01T08:18:52.754Z,97292.11
2019-04-01T08:21:24.677Z,97294.98
2019-04-01T08:23:56.204Z,97289.05
2019-04-01T08:26:28.116Z,97277.41
2019-04-01T08:28:59.977Z,97277.85
2019-04-01T08:31:31.636Z,97282.12
2019-04-01T08:34:03.319Z,97285.34
2019-04-01T08:36:35.197Z,97283.12
2019-04-01T08:39:14.233Z,97282.01
2019-04-01T08:41:45.831Z,97286.81
2019-04-01T08:44:17.529Z,97278.79
2019-04-01T08:46:48.990Z,97287.42
2019-04-01T08:49:20.408Z,97282.74
2019-04-01T08:51:52.140Z,97288.52
2019-04-01T08:54:23.615Z,97278.44
2019-04-01T08:56:55.300Z,97277.85
2019-04-01T08:59:27.465Z,97270.95
2019-04-01T09:01:58.820Z,97274.10
2019-04-01T09:04:30.856Z,97267.07
2019-04-01T09:07:02.191Z,97267.07
2019-04-01T09:09:34.841Z,97268.23
2019-04-01T09:12:06.470Z,97269.42
2019-04-01T09:14:38.325Z,97271.89
2019-04-01T09:17:09.785Z,97270.47
2019-04-01T09:19:41.213Z,97270.08
2019-04-01T09:22:12.661Z,97269.09
2019-04-01T09:24:53.607Z,97270.28
2019-04-01T09:27:25.287Z,97266.28
2019-04-01T09:29:56.557Z,97272.70
2019-04-01T09:32:28.604Z,97278.06
2019-04-01T09:35:00.521Z,97269.83
2019-04-01T09:37:31.987Z,97266.05
2019-04-01T09:40:03.404Z,97271.69
2019-04-01T09:42:34.929Z,97262.36
2019-04-01T09:45:07.516Z,97265.02
2019-04-01T09:47:40.008Z,97265.61
2019-04-01T09:50:12.039Z,97262.27
2019-04-01T09:52:43.413Z,97258.41
2019-04-01T09:55:15.022Z,97255.14
2019-04-01T09:57:46.395Z,97256.42
2019-04-01T10:00:18.769Z,97251.64
2019-04-01T10:02:50.215Z,97259.25
2019-04-01T10:05:21.608Z,97250.85
2019-04-01T10:07:52.972Z,97246.11
2019-04-01T10:10:24.648Z,97249.00
2019-04-01T10:12:56.649Z,97250.47
2019-04-01T10:15:28.082Z,97248.24
2019-04-01T10:17:59.552Z,97231.23
2019-04-01T10:20:30.911Z,97236.23
2019-04-01T10:23:02.313Z,97234.13
2019-04-01T10:25:33.534Z,97223.88
2019-04-01T10:28:05.152Z,97231.17
2019-04-01T10:30:36.637Z,97221.04
2019-04-01T10:33:08.777Z,97224.54
2019-04-01T10:35:40.202Z,97212.37
2019-04-01T10:38:11.660Z,97204.22
2019-04-01T10:40:42.996Z,97211.63
2019-04-01T10:43:14.474Z,97209.70
2019-04-01T10:45:47.050Z,97200.71
2019-04-01T10:48:18.827Z,97201.94
2019-04-01T10:50:50.445Z,97202.00
2019-04-01T10:53:22.056Z,97195.52
2019-04-01T10:55:53.473Z,97198.62
2019-04-01T10:58:25.012Z,97182.27
2019-04-01T11:00:56.661Z,97187.61
2019-04-01T11:03:28.068Z,97182.86
2019-04-01T11:05:59.551Z,97183.13
2019-04-01T11:08:31.519Z,97168.19
2019-04-01T11:11:02.802Z,97173.20
2019-04-01T11:13:34.936Z,97164.89
2019-04-01T11:16:06.277Z,97164.98
2019-04-01T11:18:37.737Z,97155.87
2019-04-01T11:21:09.186Z,97159.52
2019-04-01T11:23:40.664Z,97159.57
2019-04-01T11:26:12.102Z,97153.75
2019-04-01T11:28:43.587Z,97159.46
2019-04-01T11:31:15.093Z,97153.17
2019-04-01T11:33:47.016Z,97156.58
2019-04-01T11:36:18.374Z,97152.31
2019-04-01T11:38:50.076Z,97148.09
2019-04-01T11:41:21.631Z,97153.94
2019-04-01T11:43:53.431Z,97151.89
2019-04-01T11:46:25.043Z,97141.65
2019-04-01T11:48:56.545Z,97142.07
2019-04-01T11:51:32.976Z,97134.46
2019-04-01T11:54:01.960Z,97130.41
2019-04-01T11:56:33.276Z,97128.97
2019-04-01T11:59:04.716Z,97126.97
2019-04-01T12:01:36.829Z,97120.45
2019-04-01T12:04:08.525Z,97119.52
2019-04-01T12:06:40.073Z,97118.59
2019-04-01T12:09:11.496Z,97107.91
2019-04-01T12:11:42.953Z,97105.01
2019-04-01T12:14:14.799Z,97099.25
2019-04-01T12:16:46.146Z,97093.81
2019-04-01T12:19:18.246Z,97094.67
2019-04-01T12:21:50.183Z,97085.38
2019-04-01T12:24:21.720Z,97091.40
2019-04-01T12:26:53.067Z,97071.01
2019-04-01T12:29:24.333Z,97082.62
2019-04-01T12:31:55.658Z,97074.75
2019-04-01T12:34:27.505Z,97071.41
2019-04-01T12:36:59.163Z,97061.00
2019-04-01T12:39:30.523Z,97063.16
2019-04-01T12:42:01.992Z,97055.88
2019-04-01T12:44:33.715Z,97056.66
2019-04-01T12:47:05.271Z,97056.59
2019-04-01T12:49:36.905Z,97052.84
2019-04-01T12:52:08.125Z,97049.58
2019-04-01T12:54:39.275Z,97036.80
2019-04-01T12:57:10.504Z,97044.73
2019-04-01T12:59:42.351Z,97040.52
2019-04-01T13:02:18.013Z,97032.98
2019-04-01T13:04:51.242Z,97022.69
2019-04-01T13:07:22.089Z,97028.55
2019-04-01T13:09:53.407Z,97024.45
2019-04-01T13:12:27.282Z,97022.58
2019-04-01T13:14:57.887Z,97031.74
2019-04-01T13:17:29.038Z,97031.57
2019-04-01T13:20:00.331Z,97024.11
2019-04-01T13:22:31.564Z,97016.84
2019-04-01T13:25:05.624Z,97015.06
2019-04-01T13:27:36.234Z,97013.02
2019-04-01T13:30:08.920Z,97006.73
2019-04-01T13:32:40.140Z,97010.16
2019-04-01T13:35:11.619Z,97000.95
2019-04-01T13:37:42.852Z,97010.61
2019-04-01T13:40:15.263Z,97005.16
2019-04-01T13:42:46.878Z,96999.41
2019-04-01T13:45:18.249Z,96991.13
2019-04-01T13:47:49.646Z,96991.55
2019-04-01T13:50:21.536Z,96981.76
2019-04-01T13:52:52.748Z,96978.76
2019-04-01T13:55:24.018Z,96971.06
2019-04-01T13:57:55.166Z,96966.52
2019-04-01T14:00:27.497Z,96964.64
2019-04-01T14:02:59.631Z,96960.39
2019-04-01T14:05:31.838Z,96974.78
2019-04-01T14:08:05.706Z,96973.00
2019-04-01T14:10:36.015Z,96964.43
2019-04-01T14:13:07.386Z,96956.75
2019-04-01T14:15:38.619Z,96953.48
2019-04-01T14:18:10.241Z,96950.14
2019-04-01T14:20:42.365Z,96954.49
2019-04-01T14:23:14.015Z,96949.30
2019-04-01T14:25:46.224Z,96950.44
2019-04-01T14:28:17.433Z,96953.01
2019-04-01T14:30:48.858Z,96954.11
2019-04-01T14:33:20.108Z,96948.45
2019-04-01T14:35:51.623Z,96939.41
2019-04-01T14:38:22.750Z,96949.92
2019-04-01T14:40:53.973Z,96939.95
2019-04-01T14:43:25.176Z,96942.62
2019-04-01T14:45:56.648Z,96925.91
2019-04-01T14:48:27.942Z,96937.45
2019-04-01T14:50:59.243Z,96931.09
2019-04-01T14:53:30.377Z,96922.95
2019-04-01T14:56:01.521Z,96931.25
2019-04-01T14:58:33.034Z,96929.69
2019-04-01T15:01:05.342Z,96930.58
2019-04-01T15:03:36.694Z,96920.00
2019-04-01T15:06:08.520Z,96920.06
2019-04-01T15:08:39.957Z,96919.50
2019-04-01T15:11:12.409Z,96924.89
2019-04-01T15:13:43.955Z,96919.27
2019-04-01T15:16:15.276Z,96924.62
2019-04-01T15:18:46.569Z,96919.00
2019-04-01T15:21:18.195Z,96911.78
2019-04-01T15:23:49.338Z,96907.31
2019-04-01T15:26:21.643Z,96918.19
2019-04-01T15:28:52.883Z,96911.73
2019-04-01T15:31:24.526Z,96913.98
2019-04-01T15:33:56.592Z,96900.17
2019-04-01T15:36:27.830Z,96903.92
2019-04-01T15:38:59.136Z,96904.48
2019-04-01T15:41:30.398Z,96898.80
2019-04-01T15:44:01.674Z,96904.30
2019-04-01T15:46:32.848Z,96902.63
2019-04-01T15:49:04.528Z,96905.27
2019-04-01T15:51:36.107Z,96908.39
2019-04-01T15:54:08.051Z,96902.38
2019-04-01T15:56:41.875Z,96900.73
2019-04-01T15:59:12.138Z,96907.38
2019-04-01T16:01:43.822Z,96910.74
2019-04-01T16:04:16.560Z,96907.09
2019-04-01T16:06:48.074Z,96903.52
2019-04-01T16:09:19.319Z,96905.45
2019-04-01T16:11:53.849Z,96909.11
2019-04-01T16:14:23.810Z,96897.34
2019-04-01T16:16:54.966Z,96903.62
2019-04-01T16:19:26.486Z,96903.68
2019-04-01T16:21:57.866Z,96899.47
2019-04-01T16:24:29.092Z,96901.31
2019-04-01T16:27:00.454Z,96902.45
2019-04-01T16:29:31.569Z,96897.05
2019-04-01T16:32:03.078Z,96895.17
2019-04-01T16:34:34.843Z,96899.53
2019-04-01T16:37:06.501Z,96899.59
2019-04-01T16:39:37.729Z,96891.61
2019-04-01T16:42:08.970Z,96894.75
2019-04-01T16:44:40.218Z,96898.28
2019-04-01T16:47:14.342Z,96891.95
2019-04-01T16:49:44.521Z,96890.02
2019-04-01T16:52:15.885Z,96890.71
2019-04-01T16:54:59.839Z,96888.25
2019-04-01T16:57:31.061Z,96890.85
2019-04-01T17:00:02.282Z,96890.55
2019-04-01T17:02:33.513Z,96891.06
2019-04-01T17:05:05.406Z,96893.36
2019-04-01T17:07:36.835Z,96896.20
2019-04-01T17:10:08.682Z,96900.66
2019-04-01T17:12:39.976Z,96896.36
2019-04-01T17:15:11.815Z,96895.61
2019-04-01T17:17:43.050Z,96893.17
2019-04-01T17:20:14.527Z,96894.69
2019-04-01T17:22:45.911Z,96899.15
2019-04-01T17:25:17.618Z,96894.95
2019-04-01T17:27:48.948Z,96898.98
2019-04-01T17:30:21.341Z,96907.41
2019-04-01T17:32:52.649Z,96895.42
2019-04-01T17:35:23.930Z,96908.86
2019-04-01T17:37:55.341Z,96910.67
2019-04-01T17:40:26.636Z,96913.77
2019-04-01T17:42:58.288Z,96908.66
2019-04-01T17:45:34.929Z,96914.80
2019-04-01T17:48:07.277Z,96919.56
2019-04-01T17:50:38.996Z,96916.59
2019-04-01T17:53:12.994Z,96920.88
2019-04-01T17:55:45.762Z,96920.48
2019-04-01T17:58:17.431Z,96922.20
2019-04-01T18:00:59.887Z,96928.28
2019-04-01T18:03:31.243Z,96924.81
2019-04-01T18:06:02.502Z,96926.16
2019-04-01T18:08:34.215Z,96920.13
2019-04-01T18:11:05.771Z,96928.36
2019-04-01T18:13:36.929Z,96930.12
2019-04-01T18:16:08.528Z,96931.84
2019-04-01T18:18:40.331Z,96936.15
2019-04-01T18:21:11.621Z,96933.17
2019-04-01T18:23:43.121Z,96936.64
2019-04-01T18:26:14.406Z,96929.32
2019-04-01T18:28:45.914Z,96934.07
2019-04-01T18:31:18.634Z,96931.09
2019-04-01T18:33:56.371Z,96923.37
2019-04-01T18:36:23.543Z,96927.68
2019-04-01T18:38:54.832Z,96926.81
2019-04-01T18:41:29.781Z,96928.14
2019-04-01T18:44:01.067Z,96925.10
2019-04-01T18:46:33.390Z,96929.87
2019-04-01T18:49:04.810Z,96926.86
2019-04-01T18:51:36.907Z,96926.86
2019-04-01T18:54:08.346Z,96929.44
2019-04-01T18:56:39.652Z,96924.70
2019-04-01T18:59:11.227Z,96923.41
2019-04-01T19:01:43.300Z,96922.58
2019-04-01T19:04:15.663Z,96923.43
2019-04-01T19:06:49.750Z,96929.89
2019-04-01T19:09:19.833Z,96935.89
2019-04-01T19:12:03.372Z,96944.52
2019-04-01T19:14:24.037Z,96944.51
2019-04-01T19:16:55.327Z,96941.03
2019-04-01T19:19:26.706Z,96936.70
2019-04-01T19:21:57.865Z,96941.88
2019-04-01T19:24:29.147Z,96947.46
2019-04-01T19:27:00.298Z,96944.00
2019-04-01T19:29:31.468Z,96942.72
2019-04-01T19:32:02.770Z,96946.58
2019-04-01T19:34:33.947Z,96942.27
2019-04-01T19:37:05.185Z,96950.00
2019-04-01T19:39:36.343Z,96956.44
2019-04-01T19:42:08.124Z,96952.11
2019-04-01T19:44:39.483Z,96948.62
2019-04-01T19:47:11.786Z,96952.91
2019-04-01T19:49:43.160Z,96959.30
2019-04-01T19:52:14.453Z,96960.13
2019-04-01T19:54:46.324Z,96958.85
2019-04-01T19:57:17.860Z,96965.26
2019-04-01T19:59:49.810Z,96960.08
2019-04-01T20:02:21.042Z,96958.34
2019-04-01T20:04:52.538Z,96959.66
2019-04-01T20:07:23.665Z,96962.21
2019-04-01T20:09:54.986Z,96954.06
2019-04-01T20:12:26.280Z,96954.40
2019-04-01T20:14:58.955Z,96959.14
2019-04-01T20:17:30.295Z,96956.09
2019-04-01T20:20:02.530Z,96949.61
2019-04-01T20:22:34.149Z,96955.61
2019-04-01T20:25:09.831Z,96959.06
2019-04-01T20:27:44.337Z,96957.70
2019-04-01T20:30:29.644Z,96955.49
2019-04-01T20:33:01.178Z,96951.23
2019-04-01T20:35:34.688Z,96947.28
2019-04-01T20:38:06.053Z,96954.52
2019-04-01T20:40:38.450Z,96951.11
2019-04-01T20:43:11.152Z,96948.95
2019-04-01T20:45:42.911Z,96953.16
2019-04-01T20:48:15.504Z,96951.87
2019-04-01T20:50:46.939Z,96946.73
2019-04-01T20:53:19.037Z,96950.44
2019-04-01T20:55:50.811Z,96940.18
2019-04-01T20:58:22.524Z,96946.54
2019-04-01T21:00:54.200Z,96949.95
2019-04-01T21:03:27.230Z,96951.23
2019-04-01T21:05:59.520Z,96941.31
2019-04-01T21:08:30.843Z,96939.98
2019-04-01T21:11:02.145Z,96940.86
2019-04-01T21:13:35.720Z,96937.41
2019-04-01T21:16:07.089Z,96934.42
2019-04-01T21:18:38.695Z,96927.50
2019-04-01T21:21:10.457Z,96930.02
2019-04-01T21:23:41.895Z,96933.80
2019-04-01T21:26:13.162Z,96929.52
2019-04-01T21:28:44.446Z,96930.27
2019-04-01T21:31:16.349Z,96924.23
2019-04-01T21:33:50.928Z,96920.39
2019-04-01T21:36:22.212Z,96923.33
2019-04-01T21:38:53.938Z,96922.40
2019-04-01T21:41:25.846Z,96924.89
2019-04-01T21:43:58.097Z,96923.28
2019-04-01T21:46:29.276Z,96921.16
2019-04-01T21:49:00.422Z,96920.84
2019-04-01T21:51:32.978Z,96917.34
2019-04-01T21:54:04.575Z,96912.16
2019-04-01T21:56:36.064Z,96914.64
2019-04-01T21:59:07.480Z,96909.86
2019-04-01T22:01:38.871Z,96909.86
2019-04-01T22:04:11.272Z,96902.61
2019-04-01T22:06:42.938Z,96910.33
2019-04-01T22:09:14.494Z,96912.30
2019-04-01T22:11:45.819Z,96921.30
2019-04-01T22:14:17.045Z,96915.64
2019-04-01T22:16:48.721Z,96914.31
2019-04-01T22:19:20.272Z,96905.82
2019-04-01T22:21:51.690Z,96913.59
2019-04-01T22:24:22.934Z,96911.78
2019-04-01T22:26:54.159Z,96911.73
2019-04-01T22:29:25.466Z,96909.83
2019-04-01T22:31:56.616Z,96908.54
2019-04-01T22:34:28.213Z,96908.67
2019-04-01T22:36:59.436Z,96901.73
2019-04-01T22:39:30.760Z,96906.92
2019-04-01T22:42:02.272Z,96903.94
2019-04-01T22:44:33.423Z,96901.89
2019-04-01T22:47:04.730Z,96891.05
2019-04-01T22:49:35.857Z,96893.13
2019-04-01T22:52:07.313Z,96879.01
2019-04-01T22:54:38.461Z,96888.81
2019-04-01T22:57:09.729Z,96887.12
2019-04-01T22:59:40.888Z,96879.25
2019-04-01T23:02:13.506Z,96879.23
2019-04-01T23:04:45.205Z,96873.16
2019-04-01T23:07:16.376Z,96872.77
2019-04-01T23:09:47.609Z,96877.41
2019-04-01T23:12:18.778Z,96872.69
2019-04-01T23:14:50.358Z,96868.92
2019-04-01T23:17:21.872Z,96867.34
2019-04-01T23:19:53.399Z,96873.11
2019-04-01T23:22:25.006Z,96870.88
2019-04-01T23:24:57.432Z,96863.80
2019-04-01T23:27:28.956Z,96873.61
2019-04-01T23:30:00.318Z,96872.64
2019-04-01T23:32:31.477Z,96864.75
2019-04-01T23:35:03.039Z,96869.46
2019-04-01T23:37:34.499Z,96861.83
2019-04-01T23:40:06.776Z,96867.82
2019-04-01T23:42:38.278Z,96862.48
2019-04-01T23:45:10.478Z,96859.34
2019-04-01T23:47:41.696Z,96859.69
2019-04-01T23:50:13.431Z,96857.05
2019-04-01T23:52:44.806Z,96853.98
2019-04-01T23:55:16.279Z,96853.52
2019-04-01T23:57:47.552Z,96853.13
